createdAt,value
2018-03-01T00:00:53.751Z,47.78
2018-03-01T00:03:22.141Z,41.28
2018-03-01T00:05:50.521Z,58.15
2018-03-01T00:08:18.925Z,55.15
2018-03-01T00:10:46.560Z,47.20
2018-03-01T00:13:14.188Z,44.85
2018-03-01T00:15:41.855Z,44.83
2018-03-01T00:18:09.494Z,42.45
2018-03-01T00:20:37.117Z,49.20
2018-03-01T00:23:04.709Z,55.63
2018-03-01T00:25:32.333Z,51.40
2018-03-01T00:28:00.705Z,54.80
2018-03-01T00:30:29.102Z,48.30
2018-03-01T00:32:57.549Z,49.10
2018-03-01T00:35:25.120Z,44.92
2018-03-01T00:37:53.502Z,45.08
2018-03-01T00:40:21.858Z,48.38
2018-03-01T00:42:49.434Z,43.83
2018-03-01T00:45:17.045Z,52.75
2018-03-01T00:47:44.676Z,48.60
2018-03-01T00:50:13.023Z,51.03
2018-03-01T00:52:40.618Z,44.75
2018-03-01T00:55:08.257Z,43.05
2018-03-01T00:57:35.837Z,43.78
2018-03-01T01:00:03.415Z,50.50
2018-03-01T01:02:31.017Z,48.22
2018-03-01T01:04:58.645Z,59.50
2018-03-01T01:07:26.237Z,38.42
2018-03-01T01:09:53.808Z,49.63
2018-03-01T01:12:21.501Z,44.33
2018-03-01T01:14:49.053Z,54.13
2018-03-01T01:17:17.435Z,45.67
2018-03-01T01:19:45.785Z,51.92
2018-03-01T01:22:13.418Z,50.05
2018-03-01T01:24:41.005Z,45.50
2018-03-01T01:27:08.642Z,53.72
2018-03-01T01:29:36.246Z,44.83
2018-03-01T01:32:03.873Z,36.35
2018-03-01T01:34:31.542Z,42.83
2018-03-01T01:36:59.134Z,45.47
2018-03-01T01:39:26.707Z,48.65
2018-03-01T01:41:54.332Z,36.28
2018-03-01T01:44:21.931Z,48.50
2018-03-01T01:46:49.543Z,37.83
2018-03-01T01:49:17.168Z,48.15
2018-03-01T01:51:45.501Z,47.60
2018-03-01T01:54:13.116Z,41.80
2018-03-01T01:56:41.469Z,46.42
2018-03-01T01:59:09.081Z,40.17
2018-03-01T02:01:36.690Z,37.95
2018-03-01T02:04:04.291Z,51.17
2018-03-01T02:06:31.959Z,57.28
2018-03-01T02:08:59.531Z,51.85
2018-03-01T02:11:27.139Z,39.88
2018-03-01T02:13:56.742Z,47.60
2018-03-01T02:16:26.507Z,48.53
2018-03-01T02:18:56.362Z,41.55
2018-03-01T02:21:26.070Z,41.35
2018-03-01T02:23:55.915Z,43.08
2018-03-01T02:26:26.543Z,44.95
2018-03-01T02:28:57.337Z,42.30
2018-03-01T02:31:27.139Z,44.60
2018-03-01T02:34:00.103Z,41.42
2018-03-01T02:36:35.844Z,41.78
2018-03-01T02:39:06.454Z,55.67
2018-03-01T02:41:37.218Z,50.70
2018-03-01T02:44:07.902Z,42.35
2018-03-01T02:46:37.333Z,45.08
2018-03-01T02:49:06.981Z,38.03
2018-03-01T02:51:36.825Z,38.60
2018-03-01T02:54:08.574Z,46.90
2018-03-01T02:56:39.204Z,45.75
2018-03-01T02:59:08.694Z,44.42
2018-03-01T03:01:38.351Z,49.90
2018-03-01T03:04:08.184Z,47.75
2018-03-01T03:06:38.587Z,40.78
2018-03-01T03:09:08.390Z,38.38
2018-03-01T03:11:38.026Z,44.88
2018-03-01T03:14:08.670Z,56.17
2018-03-01T03:16:39.262Z,46.60
2018-03-01T03:19:09.102Z,42.62
2018-03-01T03:21:39.804Z,45.78
2018-03-01T03:24:09.474Z,36.35
2018-03-01T03:26:40.455Z,38.35
2018-03-01T03:29:10.011Z,40.67
2018-03-01T03:31:40.745Z,49.85
2018-03-01T03:34:11.215Z,37.28
2018-03-01T03:36:41.112Z,45.25
2018-03-01T03:39:11.996Z,38.65
2018-03-01T03:41:41.874Z,41.70
2018-03-01T03:44:11.538Z,47.85
2018-03-01T03:46:43.744Z,35.17
2018-03-01T03:49:13.389Z,35.25
2018-03-01T03:51:43.208Z,41.95
2018-03-01T03:54:13.855Z,36.90
2018-03-01T03:56:45.233Z,40.63
2018-03-01T03:59:15.852Z,42.33
2018-03-01T04:01:46.514Z,39.80
2018-03-01T04:04:16.416Z,41.20
2018-03-01T04:06:47.007Z,45.42
2018-03-01T04:09:17.813Z,30.62
2018-03-01T04:11:47.423Z,41.90
2018-03-01T04:14:17.369Z,39.00
2018-03-01T04:16:47.329Z,42.50
2018-03-01T04:19:17.979Z,47.50
2018-03-01T04:21:47.766Z,39.65
2018-03-01T04:24:17.560Z,45.78
2018-03-01T04:26:48.083Z,34.72
2018-03-01T04:29:18.053Z,61.05
2018-03-01T04:31:47.837Z,36.05
2018-03-01T04:34:18.576Z,41.53
2018-03-01T04:36:49.040Z,43.10
2018-03-01T04:39:20.092Z,38.70
2018-03-01T04:41:49.758Z,47.42
2018-03-01T04:44:20.365Z,46.72
2018-03-01T04:46:49.967Z,42.72
2018-03-01T04:49:19.657Z,45.60
2018-03-01T04:51:49.510Z,49.05
2018-03-01T04:54:19.956Z,39.70
2018-03-01T04:56:51.029Z,37.83
2018-03-01T04:59:20.591Z,39.28
2018-03-01T05:01:51.132Z,34.95
2018-03-01T05:04:21.441Z,35.20
2018-03-01T05:06:51.135Z,40.65
2018-03-01T05:09:18.778Z,37.25
2018-03-01T05:11:46.377Z,46.92
2018-03-01T05:14:14.739Z,47.58
2018-03-01T05:16:42.330Z,45.83
2018-03-01T05:19:10.653Z,46.63
2018-03-01T05:21:38.291Z,39.65
2018-03-01T05:24:05.862Z,39.97
2018-03-01T05:26:33.437Z,38.58
2018-03-01T05:29:01.836Z,33.20
2018-03-01T05:31:29.411Z,42.00
2018-03-01T05:33:57.084Z,40.55
2018-03-01T05:36:25.441Z,42.08
2018-03-01T05:38:53.801Z,32.92
2018-03-01T05:41:21.410Z,42.62
2018-03-01T05:43:49.757Z,24.02
2018-03-01T05:46:17.367Z,38.85
2018-03-01T05:48:45.699Z,37.45
2018-03-01T05:51:13.269Z,43.30
2018-03-01T05:53:40.909Z,44.97
2018-03-01T05:56:08.478Z,42.03
2018-03-01T05:58:36.090Z,42.60
2018-03-01T06:01:04.422Z,41.25
2018-03-01T06:03:32.026Z,44.50
2018-03-01T06:06:00.385Z,47.50
2018-03-01T06:08:27.951Z,45.95
2018-03-01T06:10:56.429Z,44.38
2018-03-01T06:13:23.985Z,48.13
2018-03-01T06:15:51.546Z,52.38
2018-03-01T06:18:19.148Z,43.58
2018-03-01T06:20:46.722Z,41.90
2018-03-01T06:23:14.324Z,42.42
2018-03-01T06:25:41.935Z,39.53
2018-03-01T06:28:09.552Z,43.35
2018-03-01T06:30:37.122Z,39.15
2018-03-01T06:33:05.452Z,37.08
2018-03-01T06:35:33.062Z,41.50
2018-03-01T06:38:00.674Z,55.17
2018-03-01T06:40:28.288Z,45.10
2018-03-01T06:42:56.616Z,43.58
2018-03-01T06:45:24.214Z,43.00
2018-03-01T06:47:51.774Z,52.85
2018-03-01T06:50:19.374Z,48.15
2018-03-01T06:52:47.005Z,41.70
2018-03-01T06:55:14.608Z,41.10
2018-03-01T06:57:42.211Z,53.40
2018-03-01T07:00:10.113Z,44.35
2018-03-01T07:02:37.811Z,62.78
2018-03-01T07:05:05.450Z,42.95
2018-03-01T07:07:33.077Z,43.55
2018-03-01T07:10:00.689Z,46.70
2018-03-01T07:12:28.285Z,48.42
2018-03-01T07:14:56.842Z,51.33
2018-03-01T07:17:33.505Z,38.83
2018-03-01T07:20:01.096Z,41.88
2018-03-01T07:22:28.765Z,44.03
2018-03-01T07:24:56.348Z,36.47
2018-03-01T07:27:23.942Z,48.33
2018-03-01T07:29:51.509Z,45.33
2018-03-01T07:32:19.132Z,39.15
2018-03-01T07:34:46.703Z,44.95
2018-03-01T07:37:16.025Z,39.70
2018-03-01T07:39:43.648Z,52.28
2018-03-01T07:42:11.261Z,38.80
2018-03-01T07:44:38.894Z,50.05
2018-03-01T07:47:09.472Z,43.13
2018-03-01T07:49:37.871Z,43.45
2018-03-01T07:52:05.517Z,49.50
2018-03-01T07:54:33.138Z,49.35
2018-03-01T07:57:01.479Z,50.92
2018-03-01T07:59:29.129Z,58.72
2018-03-01T08:01:56.806Z,41.22
2018-03-01T08:04:24.392Z,41.42
2018-03-01T08:06:52.860Z,43.47
2018-03-01T08:09:20.689Z,50.63
2018-03-01T08:11:48.303Z,50.15
2018-03-01T08:14:16.653Z,54.65
2018-03-01T08:16:44.290Z,44.58
2018-03-01T08:19:11.885Z,43.95
2018-03-01T08:21:39.477Z,47.10
2018-03-01T08:24:07.904Z,45.47
2018-03-01T08:26:35.586Z,42.47
2018-03-01T08:29:03.165Z,48.35
2018-03-01T08:31:30.790Z,50.95
2018-03-01T08:33:58.403Z,58.60
2018-03-01T08:36:26.049Z,68.65
2018-03-01T08:38:53.794Z,47.33
2018-03-01T08:41:21.378Z,46.53
2018-03-01T08:43:49.067Z,39.00
2018-03-01T08:46:16.725Z,45.20
2018-03-01T08:48:44.353Z,38.38
2018-03-01T08:51:11.954Z,49.08
2018-03-01T08:53:40.332Z,46.17
2018-03-01T08:56:08.709Z,58.40
2018-03-01T08:58:36.378Z,43.42
2018-03-01T09:01:04.746Z,50.78
2018-03-01T09:03:33.152Z,52.15
2018-03-01T09:06:00.817Z,69.47
2018-03-01T09:08:29.289Z,49.22
2018-03-01T09:10:56.909Z,42.70
2018-03-01T09:13:24.523Z,66.37
2018-03-01T09:15:52.138Z,44.63
2018-03-01T09:18:19.834Z,54.03
2018-03-01T09:20:47.442Z,58.78
2018-03-01T09:23:15.550Z,53.72
2018-03-01T09:25:43.926Z,45.92
2018-03-01T09:28:12.342Z,45.60
2018-03-01T09:30:40.010Z,43.58
2018-03-01T09:33:07.672Z,54.22
2018-03-01T09:35:35.478Z,45.50
2018-03-01T09:38:03.154Z,43.78
2018-03-01T09:40:31.589Z,47.60
2018-03-01T09:42:59.177Z,47.92
2018-03-01T09:45:26.781Z,46.25
2018-03-01T09:47:55.242Z,51.28
2018-03-01T09:50:22.942Z,46.72
2018-03-01T09:52:50.513Z,44.25
2018-03-01T09:55:18.294Z,56.20
2018-03-01T09:57:46.013Z,44.80
2018-03-01T10:00:13.634Z,48.00
2018-03-01T10:02:41.233Z,48.95
2018-03-01T10:05:09.646Z,47.30
2018-03-01T10:07:39.037Z,44.80
2018-03-01T10:10:06.999Z,47.62
2018-03-01T10:12:35.432Z,49.17
2018-03-01T10:15:03.034Z,49.05
2018-03-01T10:17:30.700Z,49.92
2018-03-01T10:19:58.276Z,73.22
2018-03-01T10:22:25.881Z,46.92
2018-03-01T10:24:53.471Z,51.33
2018-03-01T10:27:21.824Z,58.45
2018-03-01T10:29:49.589Z,68.95
2018-03-01T10:32:17.256Z,42.80
2018-03-01T10:34:45.695Z,45.65
2018-03-01T10:37:13.759Z,44.03
2018-03-01T10:39:41.382Z,51.45
2018-03-01T10:42:09.084Z,36.38
2018-03-01T10:44:36.709Z,42.20
2018-03-01T10:47:05.120Z,41.33
2018-03-01T10:49:33.491Z,41.13
2018-03-01T10:52:02.229Z,49.33
2018-03-01T10:54:29.838Z,47.83
2018-03-01T10:56:58.220Z,55.17
2018-03-01T10:59:26.563Z,70.03
2018-03-01T11:01:54.228Z,46.20
2018-03-01T11:04:21.930Z,45.17
2018-03-01T11:13:11.055Z,53.13
2018-03-01T11:15:38.654Z,49.00
2018-03-01T11:18:06.444Z,47.00
2018-03-01T11:20:34.000Z,41.60
2018-03-01T11:23:01.617Z,46.50
2018-03-01T11:25:29.200Z,49.03
2018-03-01T11:27:56.760Z,48.13
2018-03-01T11:30:24.482Z,55.03
2018-03-01T11:32:52.071Z,51.58
2018-03-01T11:35:19.668Z,53.40
2018-03-01T11:37:47.220Z,49.08
2018-03-01T11:40:14.872Z,46.63
2018-03-01T11:42:42.437Z,49.30
2018-03-01T11:45:10.292Z,52.15
2018-03-01T11:47:37.996Z,47.90
2018-03-01T11:50:06.353Z,50.85
2018-03-01T11:52:33.961Z,39.88
2018-03-01T11:55:01.542Z,44.22
2018-03-01T11:57:29.142Z,50.80
2018-03-01T11:59:56.706Z,48.50
2018-03-01T12:02:24.401Z,47.55
2018-03-01T12:04:52.792Z,48.22
2018-03-01T12:07:20.401Z,53.90
2018-03-01T12:09:48.000Z,41.60
2018-03-01T12:12:15.579Z,42.83
2018-03-01T12:14:43.189Z,43.60
2018-03-01T12:17:10.932Z,39.90
2018-03-01T12:19:38.592Z,47.72
2018-03-01T12:22:06.196Z,37.05
2018-03-01T12:24:33.932Z,41.58
2018-03-01T12:27:01.537Z,44.80
2018-03-01T12:29:29.253Z,46.78
2018-03-01T12:31:56.857Z,42.95
2018-03-01T12:34:25.204Z,40.17
2018-03-01T12:36:52.952Z,49.15
2018-03-01T12:39:20.548Z,40.25
2018-03-01T12:41:48.934Z,45.92
2018-03-01T12:44:16.913Z,35.17
2018-03-01T12:46:45.311Z,43.53
2018-03-01T12:49:12.884Z,38.67
2018-03-01T12:51:40.474Z,44.40
2018-03-01T12:54:13.318Z,41.33
2018-03-01T12:56:40.976Z,42.30
2018-03-01T12:59:08.885Z,36.60
2018-03-01T13:01:36.646Z,35.83
2018-03-01T13:04:05.325Z,46.55
2018-03-01T13:06:33.130Z,35.50
2018-03-01T13:09:01.657Z,41.05
2018-03-01T13:11:29.235Z,43.03
2018-03-01T13:13:56.838Z,37.72
2018-03-01T13:16:24.700Z,41.53
2018-03-01T13:18:52.412Z,41.35
2018-03-01T13:21:20.377Z,43.58
2018-03-01T13:23:48.139Z,45.30
2018-03-01T13:26:17.772Z,40.78
2018-03-01T13:28:45.506Z,44.90
2018-03-01T13:31:16.507Z,50.38
2018-03-01T13:33:45.033Z,33.88
2018-03-01T13:36:13.073Z,47.03
2018-03-01T13:38:40.822Z,38.35
2018-03-01T13:41:18.684Z,56.78
2018-03-01T13:43:47.322Z,41.95
2018-03-01T13:46:20.677Z,37.85
2018-03-01T13:48:49.228Z,41.30
2018-03-01T13:51:17.635Z,42.58
2018-03-01T13:53:45.229Z,45.83
2018-03-01T13:56:12.872Z,37.72
2018-03-01T13:58:40.547Z,36.10
2018-03-01T14:01:08.098Z,50.83
2018-03-01T14:03:35.712Z,48.92
2018-03-01T14:06:24.211Z,46.75
2018-03-01T14:08:55.327Z,40.22
2018-03-01T14:11:22.936Z,43.60
2018-03-01T14:13:50.525Z,51.15
2018-03-01T14:16:18.945Z,41.80
2018-03-01T14:19:02.215Z,45.80
2018-03-01T14:21:42.570Z,42.22
2018-03-01T14:24:10.840Z,47.25
2018-03-01T14:26:44.150Z,53.40
2018-03-01T14:29:20.425Z,42.67
2018-03-01T14:31:48.843Z,49.22
2018-03-01T14:34:17.064Z,44.50
2018-03-01T14:36:54.051Z,46.33
2018-03-01T14:39:22.129Z,48.33
2018-03-01T14:41:50.368Z,36.17
2018-03-01T14:44:17.976Z,44.67
2018-03-01T14:46:45.533Z,42.00
2018-03-01T14:49:13.146Z,46.63
2018-03-01T14:51:40.777Z,48.00
2018-03-01T14:54:09.105Z,44.78
2018-03-01T14:56:37.439Z,52.38
2018-03-01T14:59:05.793Z,44.38
2018-03-01T15:01:33.381Z,50.20
2018-03-01T15:04:05.109Z,45.92
2018-03-01T15:06:32.766Z,49.95
2018-03-01T15:09:04.420Z,44.67
2018-03-01T15:11:32.012Z,51.97
2018-03-01T15:13:59.633Z,46.83
2018-03-01T15:16:27.197Z,57.22
2018-03-01T15:18:54.889Z,49.35
2018-03-01T15:21:23.705Z,45.40
2018-03-01T15:23:51.288Z,56.40
2018-03-01T15:26:18.892Z,58.72
2018-03-01T15:28:46.594Z,37.08
2018-03-01T15:31:14.182Z,43.53
2018-03-01T15:33:41.766Z,47.13
2018-03-01T15:36:09.366Z,44.55
2018-03-01T15:38:37.713Z,53.80
2018-03-01T15:41:06.922Z,41.67
2018-03-01T15:43:34.509Z,47.22
2018-03-01T15:46:02.885Z,45.28
2018-03-01T15:48:31.264Z,52.35
2018-03-01T15:50:59.578Z,52.58
2018-03-01T15:53:27.172Z,47.65
2018-03-01T15:55:54.734Z,65.30
2018-03-01T15:58:22.306Z,40.78
2018-03-01T16:00:50.079Z,48.90
2018-03-01T16:03:18.414Z,46.05
2018-03-01T16:05:46.354Z,47.50
2018-03-01T16:08:13.952Z,45.22
2018-03-01T16:10:41.514Z,52.70
2018-03-01T16:13:09.105Z,37.90
2018-03-01T16:15:37.437Z,52.42
2018-03-01T16:18:05.814Z,47.95
2018-03-01T16:20:34.195Z,53.85
2018-03-01T16:23:01.755Z,45.42
2018-03-01T16:25:29.315Z,49.72
2018-03-01T16:27:56.903Z,45.70
2018-03-01T16:30:26.451Z,51.17
2018-03-01T16:32:54.091Z,47.35
2018-03-01T16:35:27.293Z,47.13
2018-03-01T16:37:54.929Z,49.00
2018-03-01T16:40:22.827Z,74.90
2018-03-01T16:42:51.391Z,52.50
2018-03-01T16:45:19.826Z,49.15
2018-03-01T16:47:47.383Z,47.20
2018-03-01T16:50:15.801Z,58.47
2018-03-01T16:52:43.405Z,49.90
2018-03-01T16:55:13.539Z,52.00
2018-03-01T16:57:41.155Z,48.70
2018-03-01T17:00:08.750Z,63.45
2018-03-01T17:02:37.127Z,50.75
2018-03-01T17:05:05.454Z,41.58
2018-03-01T17:07:33.042Z,50.55
2018-03-01T17:10:00.699Z,48.50
2018-03-01T17:12:28.300Z,54.50
2018-03-01T17:14:55.891Z,44.83
2018-03-01T17:17:23.503Z,62.30
2018-03-01T17:19:51.843Z,46.78
2018-03-01T17:22:19.457Z,51.42
2018-03-01T17:24:47.843Z,51.65
2018-03-01T17:27:15.401Z,56.75
2018-03-01T17:29:43.020Z,51.00
2018-03-01T17:32:10.634Z,54.33
2018-03-01T17:34:38.194Z,55.20
2018-03-01T17:37:05.799Z,49.83
2018-03-01T17:39:33.382Z,48.38
2018-03-01T17:42:00.974Z,46.80
2018-03-01T17:44:28.527Z,50.80
2018-03-01T17:46:56.957Z,48.97
2018-03-01T17:49:24.554Z,58.63
2018-03-01T17:51:52.946Z,44.10
2018-03-01T17:54:21.323Z,54.55
2018-03-01T17:56:49.675Z,52.10
2018-03-01T17:59:17.245Z,66.07
2018-03-01T18:01:45.671Z,46.13
2018-03-01T18:04:13.243Z,53.87
2018-03-01T18:06:40.867Z,58.13
2018-03-01T18:09:09.188Z,65.37
2018-03-01T18:11:36.762Z,55.08
2018-03-01T18:14:05.175Z,58.17
2018-03-01T18:16:33.550Z,68.62
2018-03-01T18:19:01.111Z,51.65
2018-03-01T18:21:29.120Z,43.97
2018-03-01T18:23:57.444Z,58.08
2018-03-01T18:26:25.797Z,52.88
2018-03-01T18:28:53.405Z,65.35
2018-03-01T18:31:21.003Z,62.38
2018-03-01T18:33:48.558Z,57.40
2018-03-01T18:36:16.203Z,52.70
2018-03-01T18:38:43.792Z,60.28
2018-03-01T18:41:11.362Z,63.83
2018-03-01T18:43:38.966Z,65.75
2018-03-01T18:46:06.533Z,50.15
2018-03-01T18:48:34.133Z,54.25
2018-03-01T18:51:01.737Z,51.53
2018-03-01T18:53:30.089Z,61.05
2018-03-01T18:55:58.471Z,66.45
2018-03-01T18:58:26.054Z,67.15
2018-03-01T19:00:53.654Z,56.25
2018-03-01T19:03:21.272Z,60.12
2018-03-01T19:05:48.838Z,56.97
2018-03-01T19:08:16.489Z,50.72
2018-03-01T19:10:44.114Z,57.33
2018-03-01T19:13:11.678Z,63.00
2018-03-01T19:15:39.253Z,64.00
2018-03-01T19:18:06.866Z,61.70
2018-03-01T19:20:35.202Z,59.05
2018-03-01T19:23:03.586Z,62.00
2018-03-01T19:25:31.206Z,64.97
2018-03-01T19:27:59.567Z,54.15
2018-03-01T19:30:27.131Z,59.90
2018-03-01T19:32:55.489Z,55.95
2018-03-01T19:35:23.136Z,68.03
2018-03-01T19:37:50.769Z,59.20
2018-03-01T19:40:18.344Z,70.82
2018-03-01T19:42:45.924Z,67.22
2018-03-01T19:45:13.538Z,54.90
2018-03-01T19:47:41.124Z,57.35
2018-03-01T19:50:08.689Z,61.13
2018-03-01T19:52:36.300Z,59.05
2018-03-01T19:55:03.897Z,62.88
2018-03-01T19:57:31.526Z,57.65
2018-03-01T19:59:59.897Z,58.63
2018-03-01T20:02:27.470Z,58.10
2018-03-01T20:04:55.834Z,60.28
2018-03-01T20:07:23.425Z,74.45
2018-03-01T20:09:51.792Z,65.65
2018-03-01T20:12:20.142Z,62.17
2018-03-01T20:14:47.753Z,67.68
2018-03-01T20:17:15.314Z,64.60
2018-03-01T20:19:42.936Z,70.25
2018-03-01T20:22:10.522Z,68.60
2018-03-01T20:24:38.911Z,68.65
2018-03-01T20:27:06.509Z,65.25
2018-03-01T20:29:34.119Z,60.88
2018-03-01T20:32:02.478Z,75.72
2018-03-01T20:34:30.075Z,77.00
2018-03-01T20:36:57.677Z,63.33
2018-03-01T20:39:25.259Z,90.53
2018-03-01T20:41:52.872Z,60.90
2018-03-01T20:44:20.490Z,69.18
2018-03-01T20:46:48.116Z,73.62
2018-03-01T20:49:15.673Z,72.00
2018-03-01T20:51:43.239Z,71.93
2018-03-01T20:54:10.833Z,57.60
2018-03-01T20:56:38.451Z,65.35
2018-03-01T20:59:06.046Z,67.57
2018-03-01T21:01:33.683Z,65.05
2018-03-01T21:04:03.888Z,62.20
2018-03-01T21:06:31.505Z,68.40
2018-03-01T21:08:59.095Z,68.05
2018-03-01T21:11:26.754Z,63.67
2018-03-01T21:13:54.412Z,69.45
2018-03-01T21:16:22.770Z,62.78
2018-03-01T21:18:50.399Z,66.35
2018-03-01T21:21:17.957Z,62.85
2018-03-01T21:23:45.515Z,72.97
2018-03-01T21:26:13.118Z,58.63
2018-03-01T21:28:40.706Z,71.87
2018-03-01T21:31:09.179Z,69.72
2018-03-01T21:33:37.591Z,74.10
2018-03-01T21:36:05.213Z,77.10
2018-03-01T21:38:32.911Z,63.20
2018-03-01T21:41:00.514Z,62.58
2018-03-01T21:43:28.113Z,72.68
2018-03-01T21:45:56.497Z,66.75
2018-03-01T21:48:24.110Z,82.55
2018-03-01T21:50:51.674Z,79.75
2018-03-01T21:53:19.298Z,74.18
2018-03-01T21:55:47.175Z,67.05
2018-03-01T21:58:14.732Z,70.70
2018-03-01T22:00:42.350Z,72.25
2018-03-01T22:03:10.694Z,68.78
2018-03-01T22:05:38.299Z,74.70
2018-03-01T22:08:06.678Z,77.30
2018-03-01T22:10:35.017Z,75.60
2018-03-01T22:13:02.630Z,82.25
2018-03-01T22:15:30.964Z,69.07
2018-03-01T22:17:58.578Z,72.65
2018-03-01T22:20:26.162Z,69.28
2018-03-01T22:22:53.808Z,66.07
2018-03-01T22:25:21.434Z,77.50
2018-03-01T22:27:49.016Z,67.62
2018-03-01T22:30:17.354Z,66.95
2018-03-01T22:32:44.954Z,62.08
2018-03-01T22:35:13.361Z,73.18
2018-03-01T22:37:40.922Z,66.85
2018-03-01T22:40:08.522Z,70.57
2018-03-01T22:42:36.125Z,75.07
2018-03-01T22:45:03.734Z,69.07
2018-03-01T22:47:31.312Z,68.82
2018-03-01T22:49:58.958Z,64.28
2018-03-01T22:52:26.523Z,79.15
2018-03-01T22:54:54.138Z,68.20
2018-03-01T22:57:21.698Z,71.40
2018-03-01T22:59:49.297Z,71.85
2018-03-01T23:02:16.903Z,74.80
2018-03-01T23:04:45.294Z,74.75
2018-03-01T23:07:13.654Z,78.03
2018-03-01T23:09:42.017Z,66.60
2018-03-01T23:12:09.609Z,77.43
2018-03-01T23:14:37.943Z,68.22
2018-03-01T23:17:05.557Z,72.15
2018-03-01T23:19:35.088Z,65.20
2018-03-01T23:22:02.692Z,66.78
2018-03-01T23:24:30.270Z,72.25
2018-03-01T23:26:57.940Z,79.95
2018-03-01T23:29:26.395Z,73.40
2018-03-01T23:31:53.988Z,71.53
2018-03-01T23:34:21.571Z,80.47
2018-03-01T23:36:49.179Z,68.37
2018-03-01T23:39:16.913Z,75.12
2018-03-01T23:41:44.526Z,52.00
2018-03-01T23:44:12.877Z,79.82
2018-03-01T23:46:40.538Z,76.40
2018-03-01T23:49:08.204Z,77.93
2018-03-01T23:51:35.792Z,81.72
2018-03-01T23:54:04.192Z,81.32
2018-03-01T23:56:31.755Z,74.10
2018-03-01T23:58:59.321Z,81.32
